Terminal Aerodrome Forecast
Issued by NWS

Home | Current Version | Previous Version | Graphics & Text | Print | Product List | Glossary On
Versions: 1 2 3 4 5 6 7 8 9 10 11 12 13 14 15
000
FTUS45 KGGW 252330
TAFSDY
TAF
KSDY 252330Z 2600/2624 27017G25KT P6SM OVC080
     FM260300 29011KT P6SM SCT050
     FM261300 28015G26KT P6SM BKN035
     FM261700 30014G24KT P6SM SCT050=

USA.gov is the U.S. government's official web portal to all federal, state and local government web resources and services.